Wetterdaten: Woche 29.05.17 - 04.06.17 (KW22)
Datum Zeit Temp. I. Temp. A. Feuchte I. Feuchte A. Luftdruck Regen Wind Richtung Sonnenschein UV Solar Taupunkt Windchill Windben
29.05.2017 00:00 25,2 C 15,6 C 48 % 74 % 1016,8 hPa 0,0 l/m 0,0 km/h (0 Bft) N 0,00 h 0,0 UV-I 0 W/m 11,0 C 15,6 C 0,0 km/h (0 Bft)
29.05.2017 01:00 24,9 C 14,5 C 49 % 78 % 1016,4 hPa 0,0 l/m 0,0 km/h (0 Bft) N 0,00 h 0,0 UV-I 0 W/m 10,7 C 14,5 C 0,0 km/h (0 Bft)
29.05.2017 02:00 24,8 C 13,1 C 49 % 84 % 1016,0 hPa 0,0 l/m 0,0 km/h (0 Bft) N 0,00 h 0,0 UV-I 0 W/m 10,5 C 13,1 C 0,0 km/h (0 Bft)
29.05.2017 03:00 24,9 C 12,6 C 49 % 86 % 1015,6 hPa 0,0 l/m 0,0 km/h (0 Bft) N 0,00 h 0,0 UV-I 0 W/m 10,2 C 12,6 C 0,0 km/h (0 Bft)
29.05.2017 04:00 24,9 C 11,6 C 50 % 88 % 1015,4 hPa 0,0 l/m 0,0 km/h (0 Bft) N 0,00 h 0,0 UV-I 0 W/m 9,7 C 11,6 C 0,0 km/h (0 Bft)
29.05.2017 05:00 24,8 C 11,4 C 50 % 89 % 1015,5 hPa 0,0 l/m 0,0 km/h (0 Bft) N 0,00 h 0,0 UV-I 11 W/m 9,5 C 11,4 C 0,0 km/h (0 Bft)
29.05.2017 06:00 24,8 C 12,0 C 50 % 87 % 1015,7 hPa 0,0 l/m 0,0 km/h (0 Bft) N 0,00 h 0,5 UV-I 41 W/m 9,8 C 12,0 C 0,0 km/h (0 Bft)
29.05.2017 07:00 24,8 C 15,4 C 51 % 79 % 1015,7 hPa 0,0 l/m 0,0 km/h (0 Bft) N 0,55 h 0,8 UV-I 165 W/m 11,8 C 15,4 C 0,0 km/h (0 Bft)
29.05.2017 08:00 25,0 C 19,1 C 51 % 68 % 1015,5 hPa 0,0 l/m 0,0 km/h (0 Bft) N 1,00 h 1,5 UV-I 408 W/m 13,1 C 19,1 C 0,0 km/h (0 Bft)
29.05.2017 09:00 24,7 C 22,5 C 51 % 56 % 1015,1 hPa 0,0 l/m 3,7 km/h (1 Bft) S 1,00 h 2,6 UV-I 555 W/m 13,3 C 22,4 C 5,8 km/h (2 Bft)
29.05.2017 10:00 24,8 C 25,0 C 51 % 47 % 1014,8 hPa 0,0 l/m 4,5 km/h (1 Bft) S 1,00 h 4,5 UV-I 715 W/m 13,0 C 25,0 C 8,0 km/h (2 Bft)
29.05.2017 11:00 24,8 C 27,2 C 50 % 42 % 1014,3 hPa 0,0 l/m 2,4 km/h (1 Bft) S 1,00 h 5,8 UV-I 809 W/m 13,0 C 27,2 C 5,2 km/h (1 Bft)
29.05.2017 12:00 25,0 C 28,6 C 49 % 41 % 1013,8 hPa 0,0 l/m 2,4 km/h (1 Bft) SW 1,00 h 6,5 UV-I 733 W/m 14,1 C 28,6 C 5,2 km/h (1 Bft)
29.05.2017 13:00 25,2 C 28,5 C 51 % 40 % 1013,7 hPa 0,0 l/m 2,7 km/h (1 Bft) W 1,00 h 6,8 UV-I 884 W/m 13,7 C 28,4 C 5,5 km/h (1 Bft)
29.05.2017 14:00 25,3 C 27,9 C 52 % 41 % 1013,2 hPa 0,0 l/m 1,4 km/h (1 Bft) W-SW 1,00 h 7,3 UV-I 963 W/m 13,4 C 27,9 C 2,5 km/h (1 Bft)
29.05.2017 15:00 25,6 C 29,6 C 52 % 41 % 1012,8 hPa 0,0 l/m 2,9 km/h (1 Bft) W 0,95 h 7,3 UV-I 963 W/m 15,0 C 29,6 C 5,1 km/h (1 Bft)
29.05.2017 16:00 25,6 C 30,0 C 51 % 39 % 1012,3 hPa 0,0 l/m 5,0 km/h (1 Bft) W-SW 1,05 h 3,4 UV-I 621 W/m 14,6 C 29,9 C 8,5 km/h (2 Bft)
29.05.2017 17:00 25,7 C 28,7 C 51 % 41 % 1012,0 hPa 0,0 l/m 1,9 km/h (1 Bft) W-SW 0,85 h 1,6 UV-I 275 W/m 14,1 C 28,7 C 4,1 km/h (1 Bft)
29.05.2017 18:00 25,9 C 27,9 C 53 % 43 % 1011,6 hPa 0,0 l/m 0,2 km/h (0 Bft) W-SW 0,12 h 0,8 UV-I 124 W/m 14,3 C 27,9 C 0,5 km/h (0 Bft)
29.05.2017 19:00 26,1 C 27,1 C 52 % 46 % 1011,5 hPa 0,0 l/m 0,0 km/h (0 Bft) N 0,00 h 0,5 UV-I 74 W/m 14,5 C 27,1 C 0,0 km/h (0 Bft)
29.05.2017 20:00 25,9 C 25,4 C 54 % 56 % 1011,5 hPa 0,0 l/m 0,0 km/h (0 Bft) N 0,00 h 0,0 UV-I 28 W/m 15,9 C 25,4 C 0,0 km/h (0 Bft)
29.05.2017 21:00 25,9 C 24,0 C 54 % 64 % 1011,8 hPa 0,0 l/m 0,0 km/h (0 Bft) N 0,00 h 0,0 UV-I 7 W/m 16,6 C 24,0 C 0,1 km/h (0 Bft)
29.05.2017 22:00 25,6 C 21,5 C 55 % 72 % 1012,0 hPa 0,0 l/m 0,0 km/h (0 Bft) N 0,00 h 0,0 UV-I 0 W/m 16,3 C 21,5 C 0,0 km/h (0 Bft)
29.05.2017 23:00 25,5 C 19,7 C 55 % 79 % 1012,0 hPa 0,0 l/m 0,0 km/h (0 Bft) N 0,00 h 0,0 UV-I 0 W/m 15,9 C 19,7 C 0,0 km/h (0 Bft)
30.05.2017 00:00 25,4 C 18,5 C 54 % 82 % 1012,1 hPa 0,0 l/m 0,0 km/h (0 Bft) N 0,00 h 0,0 UV-I 0 W/m 15,4 C 18,5 C 0,0 km/h (0 Bft)
30.05.2017 01:00 25,4 C 17,7 C 54 % 84 % 1012,2 hPa 0,0 l/m 0,0 km/h (0 Bft) N 0,00 h 0,0 UV-I 0 W/m 14,9 C 17,7 C 0,0 km/h (0 Bft)
30.05.2017 02:00 25,4 C 17,5 C 54 % 83 % 1011,8 hPa 0,0 l/m 0,0 km/h (0 Bft) N 0,00 h 0,0 UV-I 0 W/m 14,6 C 17,5 C 0,0 km/h (0 Bft)
30.05.2017 03:00 25,5 C 16,8 C 55 % 86 % 1011,6 hPa 0,0 l/m 0,0 km/h (0 Bft) N 0,00 h 0,0 UV-I 0 W/m 14,4 C 16,8 C 0,0 km/h (0 Bft)
30.05.2017 04:00 25,3 C 16,1 C 55 % 89 % 1011,5 hPa 0,0 l/m 0,0 km/h (0 Bft) N 0,00 h 0,0 UV-I 0 W/m 14,2 C 16,1 C 0,0 km/h (0 Bft)
30.05.2017 05:00 25,2 C 15,6 C 55 % 90 % 1011,7 hPa 0,0 l/m 0,0 km/h (0 Bft) N 0,00 h 0,0 UV-I 15 W/m 13,9 C 15,6 C 0,0 km/h (0 Bft)
30.05.2017 06:00 25,1 C 15,8 C 56 % 90 % 1011,8 hPa 0,0 l/m 0,0 km/h (0 Bft) N 0,00 h 0,0 UV-I 42 W/m 14,1 C 15,8 C 0,0 km/h (0 Bft)
30.05.2017 07:00 25,1 C 18,0 C 56 % 84 % 1012,4 hPa 0,0 l/m 0,2 km/h (0 Bft) W-NW 0,20 h 0,7 UV-I 131 W/m 15,2 C 18,0 C 0,7 km/h (0 Bft)
30.05.2017 08:00 25,4 C 21,2 C 55 % 73 % 1012,3 hPa 0,0 l/m 0,1 km/h (0 Bft) W-SW 0,90 h 1,7 UV-I 417 W/m 16,0 C 21,2 C 0,1 km/h (0 Bft)
30.05.2017 09:00 25,4 C 23,8 C 56 % 63 % 1012,5 hPa 0,0 l/m 0,7 km/h (0 Bft) W-SW 1,00 h 2,6 UV-I 523 W/m 16,4 C 23,8 C 1,7 km/h (1 Bft)
30.05.2017 10:00 25,4 C 25,2 C 56 % 59 % 1012,5 hPa 0,0 l/m 5,0 km/h (1 Bft) W-NW 1,00 h 3,8 UV-I 572 W/m 16,6 C 25,0 C 9,5 km/h (2 Bft)
30.05.2017 11:00 25,5 C 25,5 C 56 % 55 % 1013,0 hPa 0,0 l/m 8,2 km/h (2 Bft) N 1,00 h 4,9 UV-I 591 W/m 15,8 C 25,0 C 14,8 km/h (3 Bft)
30.05.2017 12:00 25,5 C 27,6 C 55 % 51 % 1012,5 hPa 0,0 l/m 2,3 km/h (1 Bft) N-NO 1,00 h 6,3 UV-I 849 W/m 16,4 C 27,6 C 5,5 km/h (1 Bft)
30.05.2017 13:00 25,7 C 28,6 C 55 % 45 % 1012,1 hPa 0,0 l/m 2,7 km/h (1 Bft) W 1,00 h 6,1 UV-I 763 W/m 15,6 C 28,6 C 5,7 km/h (1 Bft)
30.05.2017 14:00 25,8 C 29,0 C 55 % 42 % 1011,4 hPa 0,0 l/m 8,2 km/h (2 Bft) W-SW 1,00 h 5,9 UV-I 816 W/m 14,8 C 28,8 C 16,2 km/h (3 Bft)
30.05.2017 15:00 25,8 C 29,1 C 55 % 38 % 1011,1 hPa 0,0 l/m 6,8 km/h (2 Bft) W-SW 1,00 h 4,8 UV-I 749 W/m 13,5 C 29,0 C 13,2 km/h (3 Bft)
30.05.2017 16:00 25,9 C 28,6 C 54 % 40 % 1010,9 hPa 0,0 l/m 6,2 km/h (2 Bft) W 0,97 h 2,4 UV-I 173 W/m 13,6 C 28,4 C 11,4 km/h (2 Bft)
30.05.2017 17:00 26,0 C 27,7 C 52 % 41 % 1011,2 hPa 0,0 l/m 7,1 km/h (2 Bft) W 0,88 h 2,5 UV-I 216 W/m 13,1 C 27,4 C 13,6 km/h (3 Bft)
30.05.2017 18:00 26,1 C 26,3 C 49 % 42 % 1011,5 hPa 0,0 l/m 5,1 km/h (1 Bft) W 0,00 h 1,0 UV-I 60 W/m 12,4 C 26,1 C 11,4 km/h (2 Bft)
30.05.2017 19:00 26,2 C 25,2 C 50 % 48 % 1012,3 hPa 0,0 l/m 8,7 km/h (2 Bft) NW 0,00 h 0,0 UV-I 53 W/m 13,4 C 24,5 C 15,8 km/h (3 Bft)
30.05.2017 20:00 26,0 C 22,5 C 50 % 55 % 1012,7 hPa 0,0 l/m 2,6 km/h (1 Bft) W-NW 0,00 h 0,0 UV-I 17 W/m 13,1 C 22,4 C 5,7 km/h (1 Bft)
30.05.2017 21:00 25,9 C 21,2 C 50 % 64 % 1013,4 hPa 0,0 l/m 0,6 km/h (0 Bft) W-NW 0,00 h 0,0 UV-I 5 W/m 14,2 C 21,2 C 1,7 km/h (1 Bft)
30.05.2017 22:00 26,3 C 19,8 C 51 % 71 % 1014,0 hPa 0,0 l/m 0,0 km/h (0 Bft) N 0,00 h 0,0 UV-I 0 W/m 14,5 C 19,8 C 0,0 km/h (0 Bft)
30.05.2017 23:00 26,0 C 18,8 C 51 % 77 % 1014,6 hPa 0,0 l/m 0,0 km/h (0 Bft) N 0,00 h 0,0 UV-I 0 W/m 14,7 C 18,8 C 0,0 km/h (0 Bft)
31.05.2017 00:00 25,7 C 18,3 C 52 % 78 % 1014,9 hPa 0,0 l/m 0,0 km/h (0 Bft) N 0,00 h 0,0 UV-I 0 W/m 14,4 C 18,3 C 0,0 km/h (0 Bft)
31.05.2017 01:00 25,7 C 17,0 C 52 % 81 % 1015,1 hPa 0,0 l/m 0,0 km/h (0 Bft) N 0,00 h 0,0 UV-I 0 W/m 13,7 C 17,0 C 0,0 km/h (0 Bft)
31.05.2017 02:00 25,5 C 15,7 C 52 % 87 % 1015,3 hPa 0,0 l/m 0,0 km/h (0 Bft) N 0,00 h 0,0 UV-I 0 W/m 13,5 C 15,7 C 0,0 km/h (0 Bft)
31.05.2017 03:00 25,4 C 14,6 C 53 % 90 % 1015,8 hPa 0,0 l/m 0,0 km/h (0 Bft) N 0,00 h 0,0 UV-I 0 W/m 13,0 C 14,6 C 0,0 km/h (0 Bft)
31.05.2017 04:00 25,4 C 14,4 C 53 % 91 % 1016,2 hPa 0,0 l/m 0,0 km/h (0 Bft) N 0,00 h 0,0 UV-I 0 W/m 12,9 C 14,4 C 0,0 km/h (0 Bft)
31.05.2017 05:00 25,3 C 14,9 C 53 % 89 % 1016,6 hPa 0,0 l/m 0,0 km/h (0 Bft) N 0,00 h 0,0 UV-I 21 W/m 13,1 C 14,9 C 0,0 km/h (0 Bft)
31.05.2017 06:00 25,2 C 15,6 C 53 % 88 % 1017,2 hPa 0,0 l/m 0,0 km/h (0 Bft) N 0,00 h 0,0 UV-I 41 W/m 13,5 C 15,6 C 0,0 km/h (0 Bft)
31.05.2017 07:00 25,2 C 16,8 C 53 % 86 % 1017,5 hPa 0,0 l/m 0,2 km/h (0 Bft) NW 0,20 h 0,7 UV-I 128 W/m 14,5 C 16,8 C 0,4 km/h (0 Bft)
31.05.2017 08:00 25,3 C 18,0 C 54 % 83 % 1018,0 hPa 0,0 l/m 0,5 km/h (0 Bft) N 0,65 h 1,1 UV-I 180 W/m 15,1 C 18,0 C 1,5 km/h (1 Bft)
31.05.2017 09:00 25,4 C 18,9 C 54 % 80 % 1018,1 hPa 0,0 l/m 0,2 km/h (0 Bft) W-NW 0,72 h 1,9 UV-I 333 W/m 15,4 C 18,9 C 0,8 km/h (0 Bft)
31.05.2017 10:00 25,7 C 20,2 C 55 % 75 % 1018,0 hPa 0,0 l/m 3,2 km/h (1 Bft) NW 0,63 h 2,1 UV-I 278 W/m 15,6 C 20,1 C 6,4 km/h (2 Bft)
31.05.2017 11:00 25,8 C 22,0 C 56 % 67 % 1018,1 hPa 0,0 l/m 4,0 km/h (1 Bft) NW 0,97 h 5,4 UV-I 780 W/m 15,5 C 21,9 C 9,0 km/h (2 Bft)
31.05.2017 12:00 25,8 C 23,1 C 55 % 56 % 1018,0 hPa 0,0 l/m 6,6 km/h (2 Bft) W-SW 1,00 h 5,6 UV-I 729 W/m 13,7 C 22,7 C 13,4 km/h (3 Bft)
31.05.2017 13:00 25,9 C 24,2 C 55 % 50 % 1018,0 hPa 0,0 l/m 6,8 km/h (2 Bft) W-NW 1,00 h 6,0 UV-I 863 W/m 13,2 C 23,8 C 14,0 km/h (3 Bft)
31.05.2017 14:00 26,0 C 24,2 C 55 % 49 % 1018,0 hPa 0,0 l/m 5,5 km/h (1 Bft) W 1,00 h 5,4 UV-I 779 W/m 12,8 C 23,9 C 11,5 km/h (2 Bft)
31.05.2017 15:00 25,9 C 24,5 C 55 % 46 % 1017,9 hPa 0,0 l/m 5,3 km/h (1 Bft) W-NW 1,00 h 4,7 UV-I 725 W/m 12,2 C 24,2 C 11,4 km/h (2 Bft)
31.05.2017 16:00 25,9 C 24,2 C 51 % 46 % 1017,5 hPa 0,0 l/m 5,4 km/h (1 Bft) NW 1,00 h 3,3 UV-I 575 W/m 11,9 C 23,9 C 11,9 km/h (2 Bft)
31.05.2017 17:00 25,9 C 23,3 C 49 % 49 % 1017,4 hPa 0,0 l/m 4,9 km/h (1 Bft) N 0,95 h 1,9 UV-I 368 W/m 11,8 C 23,0 C 10,3 km/h (2 Bft)
31.05.2017 18:00 25,6 C 21,6 C 49 % 58 % 1017,4 hPa 0,0 l/m 5,9 km/h (2 Bft) N 0,05 h 0,9 UV-I 108 W/m 12,9 C 21,2 C 10,6 km/h (2 Bft)
31.05.2017 19:00 25,4 C 20,3 C 48 % 59 % 1017,6 hPa 0,0 l/m 5,9 km/h (2 Bft) N 0,00 h 0,6 UV-I 46 W/m 12,2 C 19,7 C 11,0 km/h (2 Bft)
31.05.2017 20:00 25,2 C 18,8 C 47 % 61 % 1018,0 hPa 0,0 l/m 1,2 km/h (1 Bft) N 0,00 h 0,0 UV-I 16 W/m 11,2 C 18,7 C 2,9 km/h (1 Bft)
31.05.2017 21:00 25,3 C 17,2 C 48 % 66 % 1018,8 hPa 0,0 l/m 0,0 km/h (0 Bft) N 0,00 h 0,0 UV-I 0 W/m 10,7 C 17,2 C 0,0 km/h (0 Bft)
31.05.2017 22:00 25,6 C 15,8 C 49 % 72 % 1019,3 hPa 0,0 l/m 0,0 km/h (0 Bft) N 0,00 h 0,0 UV-I 0 W/m 10,7 C 15,8 C 0,0 km/h (0 Bft)
31.05.2017 23:00 25,5 C 14,1 C 49 % 80 % 1019,5 hPa 0,0 l/m 0,0 km/h (0 Bft) N 0,00 h 0,0 UV-I 0 W/m 10,7 C 14,1 C 0,0 km/h (0 Bft)
01.06.2017 00:00 25,4 C 12,5 C 49 % 86 % 1019,6 hPa 0,0 l/m 0,0 km/h (0 Bft) N 0,00 h 0,0 UV-I 0 W/m 10,3 C 12,5 C 0,0 km/h (0 Bft)
01.06.2017 01:00 25,3 C 11,8 C 49 % 88 % 1019,8 hPa 0,0 l/m 0,0 km/h (0 Bft) N 0,00 h 0,0 UV-I 0 W/m 9,9 C 11,8 C 0,0 km/h (0 Bft)
01.06.2017 02:00 25,3 C 10,8 C 49 % 90 % 1019,9 hPa 0,0 l/m 0,0 km/h (0 Bft) N 0,00 h 0,0 UV-I 0 W/m 9,2 C 10,8 C 0,0 km/h (0 Bft)
01.06.2017 03:00 25,2 C 10,2 C 49 % 91 % 1020,0 hPa 0,0 l/m 0,0 km/h (0 Bft) N 0,00 h 0,0 UV-I 0 W/m 8,8 C 10,2 C 0,0 km/h (0 Bft)
01.06.2017 04:00 25,2 C 9,6 C 48 % 92 % 1020,1 hPa 0,0 l/m 0,0 km/h (0 Bft) N 0,00 h 0,0 UV-I 0 W/m 8,4 C 9,6 C 0,0 km/h (0 Bft)
01.06.2017 05:00 25,1 C 9,3 C 48 % 93 % 1020,3 hPa 0,0 l/m 0,0 km/h (0 Bft) N 0,00 h 0,0 UV-I 13 W/m 8,1 C 9,3 C 0,0 km/h (0 Bft)
01.06.2017 06:00 25,0 C 9,9 C 48 % 92 % 1020,5 hPa 0,0 l/m 0,0 km/h (0 Bft) N 0,00 h 0,0 UV-I 29 W/m 8,6 C 9,9 C 0,0 km/h (0 Bft)
01.06.2017 07:00 24,9 C 12,9 C 48 % 86 % 1020,5 hPa 0,0 l/m 0,0 km/h (0 Bft) N 0,67 h 0,9 UV-I 212 W/m 10,6 C 12,9 C 0,0 km/h (0 Bft)
01.06.2017 08:00 24,9 C 16,6 C 48 % 76 % 1020,6 hPa 0,0 l/m 0,1 km/h (0 Bft) W-NW 1,00 h 1,7 UV-I 456 W/m 12,4 C 16,6 C 0,3 km/h (0 Bft)
01.06.2017 09:00 25,0 C 19,1 C 48 % 68 % 1020,4 hPa 0,0 l/m 1,6 km/h (1 Bft) N 1,00 h 2,7 UV-I 607 W/m 12,9 C 19,1 C 3,4 km/h (1 Bft)
01.06.2017 10:00 24,7 C 21,1 C 47 % 58 % 1020,5 hPa 0,0 l/m 3,7 km/h (1 Bft) N 1,00 h 4,2 UV-I 735 W/m 12,4 C 21,0 C 7,4 km/h (2 Bft)
01.06.2017 11:00 24,9 C 22,0 C 47 % 53 % 1020,5 hPa 0,0 l/m 3,6 km/h (1 Bft) N 1,00 h 4,3 UV-I 642 W/m 12,0 C 21,8 C 6,4 km/h (2 Bft)
01.06.2017 12:00 25,1 C 22,0 C 48 % 50 % 1020,5 hPa 0,0 l/m 3,7 km/h (1 Bft) NW 1,00 h 4,5 UV-I 512 W/m 11,0 C 21,9 C 7,1 km/h (2 Bft)
01.06.2017 13:00 25,2 C 23,6 C 46 % 46 % 1020,1 hPa 0,0 l/m 2,7 km/h (1 Bft) NW 1,00 h 5,8 UV-I 702 W/m 11,1 C 23,5 C 5,7 km/h (1 Bft)
01.06.2017 14:00 25,2 C 23,0 C 46 % 47 % 1019,7 hPa 0,0 l/m 3,6 km/h (1 Bft) N 1,00 h 4,3 UV-I 498 W/m 11,0 C 22,9 C 7,3 km/h (2 Bft)
01.06.2017 15:00 25,3 C 23,3 C 47 % 46 % 1019,3 hPa 0,0 l/m 1,9 km/h (1 Bft) N 1,00 h 3,6 UV-I 471 W/m 10,8 C 23,2 C 4,2 km/h (1 Bft)
01.06.2017 16:00 25,4 C 22,5 C 47 % 47 % 1018,9 hPa 0,0 l/m 1,7 km/h (1 Bft) NW 0,95 h 2,2 UV-I 256 W/m 10,6 C 22,5 C 3,6 km/h (1 Bft)
01.06.2017 17:00 25,5 C 22,7 C 47 % 45 % 1018,4 hPa 0,0 l/m 2,6 km/h (1 Bft) NW 0,68 h 1,6 UV-I 209 W/m 10,1 C 22,7 C 5,2 km/h (1 Bft)
01.06.2017 18:00 25,6 C 22,2 C 48 % 46 % 1018,1 hPa 0,0 l/m 3,9 km/h (1 Bft) NW 0,07 h 0,9 UV-I 105 W/m 10,2 C 22,2 C 7,7 km/h (2 Bft)
01.06.2017 19:00 25,2 C 20,8 C 46 % 53 % 1018,2 hPa 0,0 l/m 1,7 km/h (1 Bft) N-NO 0,00 h 0,5 UV-I 64 W/m 10,7 C 20,8 C 4,8 km/h (1 Bft)
01.06.2017 20:00 25,2 C 19,6 C 45 % 56 % 1018,5 hPa 0,0 l/m 0,6 km/h (0 Bft) N 0,00 h 0,0 UV-I 18 W/m 10,5 C 19,6 C 2,2 km/h (1 Bft)
01.06.2017 21:00 24,9 C 17,8 C 45 % 62 % 1018,9 hPa 0,0 l/m 0,9 km/h (0 Bft) N 0,00 h 0,0 UV-I 5 W/m 10,5 C 17,8 C 1,9 km/h (1 Bft)
01.06.2017 22:00 25,0 C 16,3 C 46 % 71 % 1019,5 hPa 0,0 l/m 0,0 km/h (0 Bft) N 0,00 h 0,0 UV-I 0 W/m 11,0 C 16,3 C 0,0 km/h (0 Bft)
01.06.2017 23:00 25,0 C 14,6 C 46 % 78 % 1019,4 hPa 0,0 l/m 0,1 km/h (0 Bft) O-SO 0,00 h 0,0 UV-I 0 W/m 10,8 C 14,6 C 0,2 km/h (0 Bft)
02.06.2017 00:00 25,0 C 13,3 C 47 % 83 % 1019,2 hPa 0,0 l/m 0,0 km/h (0 Bft) N 0,00 h 0,0 UV-I 0 W/m 10,5 C 13,3 C 0,0 km/h (0 Bft)
02.06.2017 01:00 25,1 C 12,0 C 47 % 87 % 1018,9 hPa 0,0 l/m 0,0 km/h (0 Bft) N 0,00 h 0,0 UV-I 0 W/m 9,9 C 12,0 C 0,0 km/h (0 Bft)
02.06.2017 02:00 25,2 C 11,1 C 48 % 89 % 1018,8 hPa 0,0 l/m 0,0 km/h (0 Bft) N 0,00 h 0,0 UV-I 0 W/m 9,4 C 11,1 C 0,0 km/h (0 Bft)
02.06.2017 03:00 25,3 C 10,2 C 48 % 91 % 1018,6 hPa 0,0 l/m 0,0 km/h (0 Bft) N 0,00 h 0,0 UV-I 0 W/m 8,9 C 10,2 C 0,0 km/h (0 Bft)
02.06.2017 04:00 25,4 C 9,6 C 47 % 92 % 1018,4 hPa 0,0 l/m 0,0 km/h (0 Bft) N 0,00 h 0,0 UV-I 0 W/m 8,4 C 9,6 C 0,0 km/h (0 Bft)
02.06.2017 05:00 25,0 C 9,0 C 46 % 92 % 1018,3 hPa 0,0 l/m 0,0 km/h (0 Bft) N 0,00 h 0,0 UV-I 11 W/m 7,8 C 9,0 C 0,0 km/h (0 Bft)
02.06.2017 06:00 24,8 C 9,8 C 46 % 92 % 1018,3 hPa 0,0 l/m 0,0 km/h (0 Bft) N 0,00 h 0,0 UV-I 24 W/m 8,5 C 9,8 C 0,0 km/h (0 Bft)
02.06.2017 07:00 24,8 C 13,7 C 46 % 79 % 1018,3 hPa 0,0 l/m 0,0 km/h (0 Bft) N 0,65 h 1,0 UV-I 225 W/m 10,0 C 13,7 C 0,0 km/h (0 Bft)
02.06.2017 08:00 24,8 C 18,4 C 46 % 54 % 1018,3 hPa 0,0 l/m 0,0 km/h (0 Bft) N 1,00 h 1,8 UV-I 479 W/m 8,9 C 18,4 C 0,0 km/h (0 Bft)
02.06.2017 09:00 24,8 C 20,6 C 45 % 44 % 1018,3 hPa 0,0 l/m 0,3 km/h (0 Bft) O-SO 1,00 h 2,8 UV-I 631 W/m 8,1 C 20,6 C 1,0 km/h (0 Bft)
02.06.2017 10:00 24,8 C 22,4 C 43 % 45 % 1018,1 hPa 0,0 l/m 0,9 km/h (0 Bft) O-NO 1,00 h 4,5 UV-I 754 W/m 9,8 C 22,4 C 2,7 km/h (1 Bft)
02.06.2017 11:00 24,9 C 23,8 C 42 % 44 % 1017,8 hPa 0,0 l/m 2,0 km/h (1 Bft) N 1,00 h 5,7 UV-I 832 W/m 10,6 C 23,7 C 5,0 km/h (1 Bft)
02.06.2017 12:00 25,1 C 24,7 C 43 % 40 % 1017,4 hPa 0,0 l/m 2,9 km/h (1 Bft) N 1,00 h 6,6 UV-I 879 W/m 10,2 C 24,7 C 6,7 km/h (2 Bft)
02.06.2017 13:00 25,2 C 25,6 C 43 % 38 % 1017,0 hPa 0,0 l/m 1,9 km/h (1 Bft) N-NO 1,00 h 6,6 UV-I 873 W/m 10,1 C 25,5 C 5,0 km/h (1 Bft)
02.06.2017 14:00 25,4 C 26,1 C 43 % 36 % 1016,4 hPa 0,0 l/m 0,9 km/h (0 Bft) S 1,00 h 5,9 UV-I 854 W/m 9,9 C 26,1 C 2,4 km/h (1 Bft)
02.06.2017 15:00 25,6 C 25,6 C 44 % 38 % 1015,9 hPa 0,0 l/m 2,1 km/h (1 Bft) N-NO 1,00 h 3,8 UV-I 604 W/m 10,3 C 25,6 C 4,4 km/h (1 Bft)
02.06.2017 16:00 25,5 C 25,1 C 45 % 41 % 1015,6 hPa 0,0 l/m 2,3 km/h (1 Bft) N-NO 1,00 h 2,7 UV-I 444 W/m 10,7 C 25,1 C 4,8 km/h (1 Bft)
02.06.2017 17:00 25,5 C 25,1 C 45 % 40 % 1015,2 hPa 0,0 l/m 2,3 km/h (1 Bft) N 0,87 h 1,7 UV-I 280 W/m 10,4 C 25,0 C 5,6 km/h (1 Bft)
02.06.2017 18:00 25,6 C 24,5 C 44 % 40 % 1014,6 hPa 0,0 l/m 3,0 km/h (1 Bft) N 0,00 h 1,0 UV-I 63 W/m 10,1 C 24,4 C 6,3 km/h (2 Bft)
02.06.2017 19:00 25,6 C 23,2 C 44 % 43 % 1014,7 hPa 0,0 l/m 1,5 km/h (1 Bft) N-NO 0,00 h 0,0 UV-I 38 W/m 9,9 C 23,2 C 3,7 km/h (1 Bft)
02.06.2017 20:00 25,5 C 22,3 C 44 % 45 % 1014,8 hPa 0,0 l/m 0,0 km/h (0 Bft) N-NO 0,00 h 0,0 UV-I 18 W/m 9,8 C 22,3 C 0,3 km/h (0 Bft)
02.06.2017 21:00 25,3 C 20,1 C 44 % 55 % 1015,1 hPa 0,0 l/m 0,1 km/h (0 Bft) O-NO 0,00 h 0,0 UV-I 5 W/m 10,8 C 20,1 C 0,5 km/h (0 Bft)
02.06.2017 22:00 25,3 C 18,0 C 45 % 64 % 1015,3 hPa 0,0 l/m 0,0 km/h (0 Bft) N 0,00 h 0,0 UV-I 0 W/m 11,1 C 18,0 C 0,0 km/h (0 Bft)
02.06.2017 23:00 25,4 C 16,2 C 45 % 72 % 1015,4 hPa 0,0 l/m 0,0 km/h (0 Bft) N 0,00 h 0,0 UV-I 0 W/m 11,0 C 16,2 C 0,0 km/h (0 Bft)
03.06.2017 00:00 25,2 C 15,1 C 45 % 77 % 1015,3 hPa 0,0 l/m 0,0 km/h (0 Bft) N 0,00 h 0,0 UV-I 0 W/m 11,1 C 15,1 C 0,0 km/h (0 Bft)
03.06.2017 01:00 25,1 C 14,5 C 46 % 80 % 1015,1 hPa 0,0 l/m 0,0 km/h (0 Bft) NO 0,00 h 0,0 UV-I 0 W/m 11,1 C 14,5 C 0,1 km/h (0 Bft)
03.06.2017 02:00 25,1 C 16,0 C 46 % 71 % 1014,8 hPa 0,0 l/m 0,8 km/h (0 Bft) O-NO 0,00 h 0,0 UV-I 0 W/m 10,7 C 16,0 C 2,8 km/h (1 Bft)
03.06.2017 03:00 25,0 C 17,3 C 46 % 64 % 1014,6 hPa 0,0 l/m 1,9 km/h (1 Bft) O-NO 0,00 h 0,0 UV-I 0 W/m 10,4 C 17,3 C 5,1 km/h (1 Bft)
03.06.2017 04:00 25,0 C 15,3 C 46 % 75 % 1014,5 hPa 0,0 l/m 0,1 km/h (0 Bft) W-NW 0,00 h 0,0 UV-I 0 W/m 10,9 C 15,3 C 0,3 km/h (0 Bft)
03.06.2017 05:00 25,0 C 14,0 C 46 % 81 % 1014,4 hPa 0,0 l/m 0,0 km/h (0 Bft) N 0,00 h 0,0 UV-I 13 W/m 10,9 C 14,0 C 0,0 km/h (0 Bft)
03.06.2017 06:00 25,0 C 14,8 C 46 % 81 % 1014,3 hPa 0,0 l/m 0,0 km/h (0 Bft) N 0,00 h 0,0 UV-I 32 W/m 11,5 C 14,8 C 0,0 km/h (0 Bft)
03.06.2017 07:00 24,9 C 18,0 C 47 % 67 % 1014,0 hPa 0,0 l/m 0,2 km/h (0 Bft) N 0,63 h 0,9 UV-I 228 W/m 11,7 C 18,0 C 0,1 km/h (0 Bft)
03.06.2017 08:00 25,0 C 20,4 C 47 % 60 % 1014,2 hPa 0,0 l/m 0,0 km/h (0 Bft) N 1,00 h 1,3 UV-I 284 W/m 12,3 C 20,4 C 0,0 km/h (0 Bft)
03.06.2017 09:00 24,8 C 20,9 C 47 % 61 % 1014,2 hPa 0,0 l/m 0,1 km/h (0 Bft) W 1,00 h 1,9 UV-I 258 W/m 13,2 C 20,9 C 0,5 km/h (0 Bft)
03.06.2017 10:00 24,8 C 22,2 C 49 % 62 % 1014,0 hPa 0,0 l/m 4,9 km/h (1 Bft) S 1,00 h 3,2 UV-I 446 W/m 14,6 C 21,8 C 8,0 km/h (2 Bft)
03.06.2017 11:00 25,2 C 24,1 C 50 % 57 % 1013,6 hPa 0,0 l/m 7,2 km/h (2 Bft) S-SO 1,00 h 5,0 UV-I 703 W/m 15,1 C 23,7 C 12,0 km/h (2 Bft)
03.06.2017 12:00 25,5 C 25,6 C 50 % 52 % 1012,9 hPa 0,0 l/m 6,2 km/h (2 Bft) S 1,00 h 6,0 UV-I 780 W/m 15,0 C 25,3 C 11,5 km/h (2 Bft)
03.06.2017 13:00 25,7 C 25,8 C 49 % 49 % 1012,1 hPa 0,0 l/m 4,8 km/h (1 Bft) S 1,00 h 4,6 UV-I 563 W/m 14,4 C 25,7 C 9,4 km/h (2 Bft)
03.06.2017 14:00 25,9 C 26,1 C 46 % 45 % 1011,4 hPa 0,0 l/m 7,1 km/h (2 Bft) S-SO 1,00 h 3,9 UV-I 477 W/m 13,4 C 25,8 C 12,9 km/h (3 Bft)
03.06.2017 15:00 25,8 C 25,2 C 45 % 47 % 1010,8 hPa 0,0 l/m 5,8 km/h (2 Bft) S 1,00 h 2,1 UV-I 248 W/m 13,0 C 25,0 C 11,3 km/h (2 Bft)
03.06.2017 16:00 25,9 C 25,0 C 46 % 50 % 1010,3 hPa 0,0 l/m 2,7 km/h (1 Bft) S 1,00 h 1,7 UV-I 233 W/m 13,7 C 25,0 C 6,4 km/h (2 Bft)
03.06.2017 17:00 26,1 C 24,3 C 48 % 53 % 1009,9 hPa 0,0 l/m 5,7 km/h (1 Bft) S 0,75 h 1,5 UV-I 211 W/m 14,0 C 23,9 C 12,1 km/h (2 Bft)
03.06.2017 18:00 25,9 C 21,1 C 50 % 71 % 1010,0 hPa 0,0 l/m 2,4 km/h (1 Bft) W-NW 0,00 h 0,7 UV-I 61 W/m 15,6 C 21,1 C 5,2 km/h (1 Bft)
03.06.2017 19:00 25,6 C 19,4 C 54 % 82 % 1009,9 hPa 0,0 l/m 0,1 km/h (0 Bft) N 0,00 h 0,0 UV-I 16 W/m 16,3 C 19,4 C 0,2 km/h (0 Bft)
03.06.2017 20:00 25,5 C 19,0 C 54 % 81 % 1010,2 hPa 0,0 l/m 2,3 km/h (1 Bft) N 0,00 h 0,0 UV-I 11 W/m 15,8 C 19,0 C 4,6 km/h (1 Bft)
03.06.2017 21:00 25,4 C 17,3 C 55 % 88 % 1010,1 hPa 0,2 l/m 0,0 km/h (0 Bft) N 0,00 h 0,0 UV-I 5 W/m 15,4 C 17,3 C 0,0 km/h (0 Bft)
03.06.2017 22:00 25,6 C 16,4 C 54 % 92 % 1009,8 hPa 0,0 l/m 0,0 km/h (0 Bft) N 0,00 h 0,0 UV-I 0 W/m 15,1 C 16,4 C 0,0 km/h (0 Bft)
03.06.2017 23:00 25,5 C 16,3 C 55 % 94 % 1009,2 hPa 3,6 l/m 0,4 km/h (0 Bft) N 0,00 h 0,0 UV-I 0 W/m 15,4 C 16,3 C 0,8 km/h (0 Bft)
04.06.2017 00:00 25,6 C 16,1 C 54 % 95 % 1008,6 hPa 0,4 l/m 1,0 km/h (0 Bft) S 0,00 h 0,0 UV-I 0 W/m 15,3 C 16,1 C 2,2 km/h (1 Bft)
04.06.2017 01:00 25,6 C 15,7 C 54 % 96 % 1008,1 hPa 0,0 l/m 0,3 km/h (0 Bft) N 0,00 h 0,0 UV-I 0 W/m 15,0 C 15,7 C 0,6 km/h (0 Bft)
04.06.2017 02:00 25,6 C 15,7 C 54 % 96 % 1007,7 hPa 0,0 l/m 2,3 km/h (1 Bft) W-SW 0,00 h 0,0 UV-I 0 W/m 15,1 C 15,3 C 3,9 km/h (1 Bft)
04.06.2017 03:00 25,5 C 15,7 C 54 % 96 % 1008,3 hPa 0,4 l/m 2,6 km/h (1 Bft) W 0,00 h 0,0 UV-I 0 W/m 15,1 C 15,5 C 5,4 km/h (1 Bft)
04.06.2017 04:00 25,7 C 15,6 C 53 % 96 % 1008,0 hPa 3,6 l/m 0,0 km/h (0 Bft) N 0,00 h 0,0 UV-I 0 W/m 15,1 C 15,6 C 0,0 km/h (0 Bft)
04.06.2017 05:00 25,6 C 15,5 C 54 % 97 % 1007,6 hPa 1,2 l/m 0,0 km/h (0 Bft) N 0,00 h 0,0 UV-I 6 W/m 15,0 C 15,5 C 0,0 km/h (0 Bft)
04.06.2017 06:00 25,7 C 15,6 C 54 % 97 % 1007,4 hPa 0,0 l/m 0,0 km/h (0 Bft) N 0,00 h 0,0 UV-I 33 W/m 15,1 C 15,6 C 0,0 km/h (0 Bft)
04.06.2017 07:00 25,7 C 16,0 C 55 % 97 % 1007,3 hPa 0,0 l/m 0,4 km/h (0 Bft) S 0,12 h 0,6 UV-I 101 W/m 15,6 C 16,0 C 1,1 km/h (1 Bft)
04.06.2017 08:00 25,7 C 16,4 C 56 % 96 % 1007,4 hPa 0,0 l/m 3,5 km/h (1 Bft) S 0,08 h 0,8 UV-I 113 W/m 15,7 C 16,3 C 7,1 km/h (2 Bft)
04.06.2017 09:00 25,4 C 16,6 C 57 % 95 % 1007,3 hPa 0,0 l/m 3,6 km/h (1 Bft) S 0,43 h 1,2 UV-I 140 W/m 15,8 C 16,5 C 7,9 km/h (2 Bft)
04.06.2017 10:00 25,1 C 17,1 C 58 % 94 % 1007,3 hPa 7,8 l/m 2,9 km/h (1 Bft) S 0,35 h 1,4 UV-I 133 W/m 16,1 C 16,8 C 6,4 km/h (2 Bft)
04.06.2017 11:00 25,3 C 14,5 C 57 % 94 % 1009,3 hPa 7,8 l/m 13,8 km/h (3 Bft) NW 0,00 h 0,9 UV-I 74 W/m 13,6 C 11,3 C 23,1 km/h (4 Bft)
04.06.2017 12:00 25,4 C 14,6 C 56 % 95 % 1010,8 hPa 0,4 l/m 5,1 km/h (1 Bft) W-NW 0,72 h 2,2 UV-I 238 W/m 13,8 C 14,1 C 10,3 km/h (2 Bft)
04.06.2017 13:00 25,4 C 14,8 C 56 % 93 % 1012,0 hPa 0,0 l/m 5,2 km/h (1 Bft) W-NW 0,03 h 0,9 UV-I 86 W/m 13,7 C 14,1 C 9,7 km/h (2 Bft)
04.06.2017 14:00 25,7 C 14,2 C 56 % 93 % 1013,0 hPa 0,0 l/m 4,9 km/h (1 Bft) W-NW 0,28 h 1,4 UV-I 143 W/m 13,1 C 13,4 C 9,9 km/h (2 Bft)
04.06.2017 15:00 25,5 C 16,5 C 54 % 84 % 1013,5 hPa 0,0 l/m 6,6 km/h (2 Bft) W-NW 1,00 h 4,2 UV-I 596 W/m 13,7 C 15,6 C 13,3 km/h (3 Bft)
04.06.2017 16:00 25,4 C 17,9 C 53 % 71 % 1013,5 hPa 0,0 l/m 9,1 km/h (2 Bft) W-NW 1,00 h 3,5 UV-I 551 W/m 12,6 C 16,5 C 14,7 km/h (3 Bft)
04.06.2017 17:00 25,6 C 17,4 C 52 % 69 % 1013,7 hPa 0,2 l/m 9,0 km/h (2 Bft) W-NW 0,77 h 1,6 UV-I 199 W/m 11,6 C 16,0 C 14,5 km/h (3 Bft)
04.06.2017 18:00 25,8 C 17,7 C 52 % 65 % 1013,8 hPa 0,0 l/m 5,4 km/h (1 Bft) W 0,00 h 1,0 UV-I 69 W/m 11,0 C 17,2 C 11,4 km/h (2 Bft)
04.06.2017 19:00 25,8 C 17,1 C 52 % 67 % 1014,1 hPa 0,0 l/m 0,7 km/h (0 Bft) N 0,00 h 0,7 UV-I 48 W/m 10,9 C 17,1 C 1,5 km/h (1 Bft)
04.06.2017 20:00 25,4 C 16,3 C 50 % 73 % 1014,4 hPa 0,0 l/m 0,0 km/h (0 Bft) W-SW 0,00 h 0,0 UV-I 23 W/m 11,5 C 16,3 C 0,1 km/h (0 Bft)
04.06.2017 21:00 25,6 C 14,1 C 51 % 86 % 1014,8 hPa 0,0 l/m 0,0 km/h (0 Bft) N 0,00 h 0,0 UV-I 5 W/m 11,7 C 14,1 C 0,0 km/h (0 Bft)
04.06.2017 22:00 25,7 C 12,5 C 51 % 91 % 1015,4 hPa 0,0 l/m 0,0 km/h (0 Bft) N 0,00 h 0,0 UV-I 0 W/m 11,0 C 12,5 C 0,0 km/h (0 Bft)
04.06.2017 23:00 25,7 C 11,7 C 51 % 93 % 1015,6 hPa 0,0 l/m 0,0 km/h (0 Bft) N 0,00 h 0,0 UV-I 0 W/m 10,6 C 11,7 C 0,0 km/h (0 Bft)
Min-Datum _ 29.05.17 01.06.17 02.06.17 02.06.17 04.06.17 - 29.05.17 - - - - 02.06.17 04.06.17 29.05.17
_ Min-Zeit 09:53 05:25 10:44 14:08 10:47 - 00:00 - - - - 09:18 11:21 00:00
Minimum _ 24,6 C 8,9 C 41 % 32 % 1006,9 hPa - 0,0 km/h (0 Bft) - - - - 6,2 C 7,9 C 0,0 km/h (0 Bft)
Max-Datum _ 30.05.17 29.05.17 04.06.17 04.06.17 01.06.17 04.06.17 04.06.17 - 03.06.17 29.05.17 29.05.17 30.05.17 29.05.17 04.06.17
_ Max-Zeit 22:30 15:43 09:56 02:37 08:32 10:58 10:58 - 10:26 13:04 13:04 12:10 15:43 10:58
Maximum _ 26,4 C 30,5 C 58 % 97 % 1020,7 hPa 7,8 l/m 30,6 km/h
S (5 Bft)
- 0,10 h 7,8 UV-I 1143 W/m 18,7 C 30,5 C 43,5 km/h
S (6 Bft)
Durchschnitt _ 25,4 C 19,2 C 50 % 69 % 1014,8 hPa #25,6 l/m 2,0 km/h (1 Bft) W-NW #65:41 h 3,0 UV-I 331 W/m 12,6 C 19,1 C 3,9 km/h (1 Bft)